createdAt,value
2022-12-05T00:01:19.586Z,101653.88
2022-12-05T00:03:48.221Z,101652.06
2022-12-05T00:06:15.380Z,101643.19
2022-12-05T00:08:42.267Z,101651.19
2022-12-05T00:11:17.455Z,101652.13
2022-12-05T00:13:44.939Z,101644.03
2022-12-05T00:16:14.344Z,101644.91
2022-12-05T00:18:41.380Z,101640.50
2022-12-05T00:21:25.269Z,101637.84
2022-12-05T00:23:53.580Z,101642.31
2022-12-05T00:26:21.011Z,101636.09
2022-12-05T00:28:47.879Z,101637.88
2022-12-05T00:31:17.105Z,101633.44
2022-12-05T00:33:44.658Z,101636.09
2022-12-05T00:36:18.425Z,101632.50
2022-12-05T00:38:45.386Z,101627.16
2022-12-05T00:41:19.016Z,101632.50
2022-12-05T00:43:46.516Z,101624.47
2022-12-05T00:46:19.120Z,101626.28
2022-12-05T00:48:46.604Z,101620.00
2022-12-05T00:51:22.729Z,101629.69
2022-12-05T00:53:49.559Z,101627.88
2022-12-05T00:56:19.051Z,101637.69
2022-12-05T00:58:46.241Z,101631.41
2022-12-05T01:01:16.384Z,101637.63
2022-12-05T01:03:44.427Z,101630.41
2022-12-05T01:06:13.676Z,101635.69
2022-12-05T01:08:40.668Z,101638.34
2022-12-05T01:11:09.152Z,101632.94
2022-12-05T01:13:35.915Z,101636.47
2022-12-05T01:16:02.766Z,101635.53
2022-12-05T01:18:29.658Z,101636.47
2022-12-05T01:20:56.334Z,101635.53
2022-12-05T01:23:23.045Z,101647.09
2022-12-05T01:25:51.880Z,101646.22
2022-12-05T01:28:18.872Z,101644.50
2022-12-05T01:30:47.586Z,101645.38
2022-12-05T01:33:14.245Z,101648.97
2022-12-05T01:35:41.908Z,101643.56
2022-12-05T01:38:10.098Z,101646.22
2022-12-05T01:40:36.651Z,101652.50
2022-12-05T01:43:04.457Z,101660.53
2022-12-05T01:45:39.847Z,101659.72
2022-12-05T01:48:11.100Z,101665.09
2022-12-05T01:50:38.164Z,101668.56
2022-12-05T01:53:05.556Z,101673.09
2022-12-05T01:55:33.575Z,101664.28
2022-12-05T01:58:02.155Z,101671.38
2022-12-05T02:00:28.978Z,101668.63
2022-12-05T02:03:02.549Z,101669.56
2022-12-05T02:05:34.471Z,101666.88
2022-12-05T02:08:04.304Z,101672.22
2022-12-05T02:10:38.236Z,101674.84
2022-12-05T02:13:16.663Z,101671.22
2022-12-05T02:15:56.836Z,101674.69
2022-12-05T02:18:42.407Z,101664.94
2022-12-05T02:21:50.416Z,101675.63
2022-12-05T02:24:41.700Z,101676.44
2022-12-05T02:27:21.159Z,101669.28
2022-12-05T02:30:06.395Z,101671.88
2022-12-05T02:32:50.704Z,101664.72
2022-12-05T02:35:30.757Z,101662.84
2022-12-05T02:38:27.776Z,101672.75
2022-12-05T02:41:25.404Z,101663.00
2022-12-05T02:44:01.971Z,101669.13
2022-12-05T02:46:32.213Z,101668.19
2022-12-05T02:49:03.542Z,101670.00
2022-12-05T02:51:34.601Z,101669.94
2022-12-05T02:54:05.372Z,101674.34
2022-12-05T02:56:34.482Z,101679.75
2022-12-05T02:59:01.597Z,101674.34
2022-12-05T03:01:31.788Z,101670.00
2022-12-05T03:04:01.589Z,101673.53
2022-12-05T03:06:32.212Z,101684.25
2022-12-05T03:09:06.803Z,101673.53
2022-12-05T03:11:41.279Z,101672.53
2022-12-05T03:14:14.147Z,101672.47
2022-12-05T03:16:50.595Z,101668.94
2022-12-05T03:19:32.424Z,101675.16
2022-12-05T03:22:07.120Z,101667.13
2022-12-05T03:24:40.559Z,101671.59
2022-12-05T03:27:27.928Z,101663.59
2022-12-05T03:30:07.757Z,101665.38
2022-12-05T03:32:49.079Z,101663.50
2022-12-05T03:35:30.916Z,101663.44
2022-12-05T03:38:07.676Z,101664.44
2022-12-05T03:40:57.451Z,101663.59
2022-12-05T03:43:53.550Z,101667.19
2022-12-05T03:46:37.770Z,101664.53
2022-12-05T03:49:34.667Z,101672.59
2022-12-05T03:52:09.296Z,101669.88
2022-12-05T03:54:41.351Z,101663.66
2022-12-05T03:57:15.309Z,101669.94
2022-12-05T03:59:58.366Z,101677.88
2022-12-05T04:02:30.633Z,101671.59
2022-12-05T04:05:16.456Z,101672.53
2022-12-05T04:07:46.373Z,101668.00
2022-12-05T04:10:18.398Z,101672.41
2022-12-05T04:12:46.886Z,101670.66
2022-12-05T04:15:22.513Z,101677.75
2022-12-05T04:18:00.601Z,101673.19
2022-12-05T04:20:58.012Z,101675.88
2022-12-05T04:23:26.504Z,101686.41
2022-12-05T04:26:13.027Z,101685.56
2022-12-05T04:28:48.772Z,101682.81
2022-12-05T04:31:24.364Z,101684.53
2022-12-05T04:33:55.301Z,101688.00
2022-12-05T04:36:35.963Z,101687.00
2022-12-05T04:39:16.122Z,101680.88
2022-12-05T04:41:52.823Z,101683.53
2022-12-05T04:44:31.817Z,101679.06
2022-12-05T04:47:01.920Z,101687.94
2022-12-05T04:49:30.900Z,101684.41
2022-12-05T04:52:03.763Z,101679.94
2022-12-05T04:54:41.820Z,101686.06
2022-12-05T04:57:16.620Z,101686.00
2022-12-05T04:59:43.565Z,101684.19
2022-12-05T05:02:16.242Z,101688.66
2022-12-05T05:04:47.215Z,101682.38
2022-12-05T05:07:14.910Z,101691.28
2022-12-05T05:09:42.008Z,101693.09
2022-12-05T05:12:10.502Z,101689.47
2022-12-05T05:14:39.766Z,101693.00
2022-12-05T05:17:06.429Z,101689.41
2022-12-05T05:19:32.983Z,101693.88
2022-12-05T05:22:00.358Z,101692.16
2022-12-05T05:24:26.861Z,101688.66
2022-12-05T05:26:57.277Z,101693.00
2022-12-05T05:29:24.434Z,101698.34
2022-12-05T05:31:50.926Z,101700.09
2022-12-05T05:34:17.546Z,101699.16
2022-12-05T05:36:44.171Z,101697.34
2022-12-05T05:39:14.175Z,101700.75
2022-12-05T05:41:41.295Z,101698.94
2022-12-05T05:44:07.875Z,101702.47
2022-12-05T05:46:36.104Z,101699.88
2022-12-05T05:49:03.457Z,101692.78
2022-12-05T05:51:30.401Z,101701.75
2022-12-05T05:53:58.756Z,101698.16
2022-12-05T05:56:25.656Z,101699.88
2022-12-05T05:59:01.279Z,101698.06
2022-12-05T06:01:29.154Z,101698.00
2022-12-05T06:03:56.071Z,101699.75
2022-12-05T06:06:23.888Z,101695.31
2022-12-05T06:08:50.400Z,101700.59
2022-12-05T06:11:25.237Z,101705.97
2022-12-05T06:13:56.272Z,101706.75
2022-12-05T06:16:24.781Z,101708.50
2022-12-05T06:18:52.379Z,101708.56
2022-12-05T06:21:19.188Z,101706.81
2022-12-05T06:23:45.856Z,101712.16
2022-12-05T06:26:15.352Z,101708.63
2022-12-05T06:28:43.092Z,101717.59
2022-12-05T06:31:12.750Z,101714.84
2022-12-05T06:33:43.592Z,101719.25
2022-12-05T06:36:14.712Z,101717.38
2022-12-05T06:38:45.734Z,101715.56
2022-12-05T06:41:17.974Z,101723.53
2022-12-05T06:43:44.545Z,101726.13
2022-12-05T06:46:13.206Z,101717.25
2022-12-05T06:48:40.201Z,101720.72
2022-12-05T06:51:09.617Z,101719.84
2022-12-05T06:53:36.168Z,101719.91
2022-12-05T06:56:07.400Z,101721.72
2022-12-05T06:58:34.020Z,101718.19
2022-12-05T07:01:19.021Z,101719.13
2022-12-05T07:03:47.610Z,101731.56
2022-12-05T07:06:14.519Z,101729.88
2022-12-05T07:08:41.519Z,101726.34
2022-12-05T07:11:08.411Z,101739.72
2022-12-05T07:13:34.939Z,101730.75
2022-12-05T07:16:01.489Z,101742.31
2022-12-05T07:18:28.147Z,101740.50
2022-12-05T07:21:12.201Z,101739.56
2022-12-05T07:23:40.467Z,101753.81
2022-12-05T07:26:08.737Z,101755.56
2022-12-05T07:28:35.261Z,101753.81
2022-12-05T07:31:10.027Z,101749.25
2022-12-05T07:33:37.393Z,101754.53
2022-12-05T07:36:24.089Z,101758.09
2022-12-05T07:38:55.860Z,101749.13
2022-12-05T07:41:25.523Z,101749.06
2022-12-05T07:43:53.757Z,101755.19
2022-12-05T07:46:21.147Z,101753.31
2022-12-05T07:48:49.036Z,101761.28
2022-12-05T07:51:16.659Z,101764.69
2022-12-05T07:53:44.311Z,101761.06
2022-12-05T07:56:19.099Z,101764.50
2022-12-05T07:58:48.520Z,101766.22
2022-12-05T08:01:18.055Z,101776.00
2022-12-05T08:03:45.119Z,101771.59
2022-12-05T08:06:15.071Z,101774.25
2022-12-05T08:08:41.915Z,101786.78
2022-12-05T08:11:14.524Z,101783.16
2022-12-05T08:13:41.442Z,101793.78
2022-12-05T08:16:11.309Z,101791.91
2022-12-05T08:18:38.416Z,101795.59
2022-12-05T08:21:07.589Z,101794.66
2022-12-05T08:23:34.942Z,101794.50
2022-12-05T08:26:09.830Z,101798.94
2022-12-05T08:28:37.601Z,101800.66
2022-12-05T08:31:15.961Z,101805.16
2022-12-05T08:33:43.216Z,101805.06
2022-12-05T08:36:12.852Z,101806.00
2022-12-05T08:38:39.975Z,101808.69
2022-12-05T08:41:10.383Z,101811.44
2022-12-05T08:43:37.072Z,101806.09
2022-12-05T08:46:04.626Z,101812.31
2022-12-05T08:48:32.943Z,101812.09
2022-12-05T08:51:00.189Z,101813.66
2022-12-05T08:53:27.513Z,101818.00
2022-12-05T08:55:53.963Z,101813.38
2022-12-05T08:58:20.548Z,101820.31
2022-12-05T09:00:47.047Z,101824.66
2022-12-05T09:03:13.584Z,101824.72
2022-12-05T09:05:40.128Z,101829.28
2022-12-05T09:08:06.782Z,101824.72
2022-12-05T09:10:33.798Z,101836.22
2022-12-05T09:13:00.267Z,101832.47
2022-12-05T09:15:26.808Z,101833.41
2022-12-05T09:17:53.376Z,101839.63
2022-12-05T09:20:20.050Z,101842.47
2022-12-05T09:22:46.579Z,101842.53
2022-12-05T09:25:15.483Z,101844.25
2022-12-05T09:27:42.076Z,101847.09
2022-12-05T09:30:09.356Z,101850.69
2022-12-05T09:32:37.243Z,101854.25
2022-12-05T09:35:03.944Z,101850.84
2022-12-05T09:37:39.093Z,101864.22
2022-12-05T09:40:07.864Z,101854.47
2022-12-05T09:42:56.365Z,101859.75
2022-12-05T09:45:33.614Z,101858.81
2022-12-05T09:48:12.616Z,101857.06
2022-12-05T09:50:50.063Z,101859.88
2022-12-05T09:53:19.315Z,101860.03
2022-12-05T09:56:03.836Z,101867.25
2022-12-05T09:58:44.140Z,101862.84
2022-12-05T10:01:29.205Z,101866.47
2022-12-05T10:04:23.029Z,101862.94
2022-12-05T10:07:07.324Z,101869.31
2022-12-05T10:09:46.648Z,101870.31
2022-12-05T10:12:41.107Z,101863.28
2022-12-05T10:15:13.476Z,101861.63
2022-12-05T10:17:51.169Z,101860.81
2022-12-05T10:20:25.513Z,101860.91
2022-12-05T10:22:59.636Z,101860.91
2022-12-05T10:25:28.162Z,101859.09
2022-12-05T10:28:02.787Z,101860.81
2022-12-05T10:30:33.280Z,101856.28
2022-12-05T10:33:09.186Z,101858.00
2022-12-05T10:35:38.082Z,101858.00
2022-12-05T10:38:07.662Z,101864.16
2022-12-05T10:40:37.524Z,101864.03
2022-12-05T10:43:05.827Z,101862.16
2022-12-05T10:45:32.476Z,101868.19
2022-12-05T10:47:58.982Z,101863.56
2022-12-05T10:50:33.800Z,101867.78
2022-12-05T10:53:04.008Z,101864.00
2022-12-05T10:55:36.219Z,101865.59
2022-12-05T10:58:17.769Z,101866.41
2022-12-05T11:00:48.180Z,101860.91
2022-12-05T11:03:23.099Z,101859.16
2022-12-05T11:05:51.284Z,101854.53
2022-12-05T11:08:56.058Z,101853.69
2022-12-05T11:11:28.491Z,101840.16
2022-12-05T11:14:01.826Z,101836.59
2022-12-05T11:16:36.550Z,101831.47
2022-12-05T11:19:21.455Z,101827.25
2022-12-05T11:21:49.668Z,101839.06
2022-12-05T11:24:28.943Z,101841.72
2022-12-05T11:26:57.284Z,101839.72
2022-12-05T11:29:32.771Z,101838.47
2022-12-05T11:31:59.498Z,101841.75
2022-12-05T11:34:57.215Z,101844.06
2022-12-05T11:37:32.239Z,101840.22
2022-12-05T11:40:01.679Z,101848.25
2022-12-05T11:43:00.480Z,101843.75
2022-12-05T11:45:39.433Z,101845.50
2022-12-05T11:48:20.844Z,101840.22
2022-12-05T11:51:20.023Z,101841.94
2022-12-05T11:55:03.430Z,101838.19
2022-12-05T11:57:51.817Z,101832.59
2022-12-05T12:00:33.845Z,101839.75
2022-12-05T12:03:33.344Z,101840.63
2022-12-05T12:06:19.800Z,101831.81
2022-12-05T12:09:17.935Z,101838.25
2022-12-05T12:11:57.516Z,101837.53
2022-12-05T12:14:39.093Z,101839.34
2022-12-05T12:17:35.897Z,101840.50
2022-12-05T12:20:15.946Z,101836.09
2022-12-05T12:22:58.339Z,101840.66
2022-12-05T12:25:41.926Z,101838.84
2022-12-05T12:28:29.460Z,101838.84
2022-12-05T12:31:29.684Z,101833.63
2022-12-05T12:34:14.849Z,101834.50
2022-12-05T12:36:50.482Z,101836.16
2022-12-05T12:39:52.304Z,101832.63
2022-12-05T12:42:27.150Z,101827.19
2022-12-05T12:45:21.069Z,101820.88
2022-12-05T12:47:53.452Z,101827.09
2022-12-05T12:50:23.144Z,101829.72
2022-12-05T12:53:04.557Z,101824.34
2022-12-05T12:55:44.912Z,101819.06
2022-12-05T12:58:37.492Z,101818.28
2022-12-05T13:01:17.683Z,101813.00
2022-12-05T13:03:52.025Z,101820.97
2022-12-05T13:06:36.726Z,101812.06
2022-12-05T13:09:19.165Z,101813.78
2022-12-05T13:11:48.582Z,101816.41
2022-12-05T13:14:21.044Z,101808.28
2022-12-05T13:16:52.080Z,101799.31
2022-12-05T13:19:27.779Z,101810.97
2022-12-05T13:21:59.555Z,101804.59
2022-12-05T13:24:28.845Z,101803.81
2022-12-05T13:27:00.643Z,101807.28
2022-12-05T13:29:38.368Z,101800.09
2022-12-05T13:32:06.970Z,101805.38
2022-12-05T13:34:47.895Z,101803.56
2022-12-05T13:37:43.071Z,101803.44
2022-12-05T13:41:00.100Z,101805.31
2022-12-05T13:43:29.161Z,101799.00
2022-12-05T13:46:09.763Z,101804.31
2022-12-05T13:48:42.007Z,101805.16
2022-12-05T13:51:36.277Z,101811.31
2022-12-05T13:54:11.732Z,101809.34
2022-12-05T13:57:01.386Z,101813.72
2022-12-05T14:00:19.768Z,101808.28
2022-12-05T14:02:48.719Z,101813.66
2022-12-05T14:05:15.263Z,101804.75
2022-12-05T14:08:03.761Z,101811.91
2022-12-05T14:10:30.957Z,101810.03
2022-12-05T14:13:31.158Z,101812.63
2022-12-05T14:16:25.911Z,101813.50
2022-12-05T14:19:03.161Z,101818.72
2022-12-05T14:21:39.606Z,101815.97
2022-12-05T14:24:24.263Z,101820.38
2022-12-05T14:27:08.226Z,101818.50
2022-12-05T14:29:43.784Z,101815.81
2022-12-05T14:32:10.298Z,101820.06
2022-12-05T14:34:48.249Z,101818.97
2022-12-05T14:37:14.746Z,101818.03
2022-12-05T14:39:51.670Z,101820.88
2022-12-05T14:42:24.459Z,101823.47
2022-12-05T14:44:54.126Z,101825.19
2022-12-05T14:47:25.358Z,101818.09
2022-12-05T14:49:55.529Z,101824.19
2022-12-05T14:52:25.039Z,101826.88
2022-12-05T14:54:55.209Z,101829.63
2022-12-05T14:57:22.991Z,101827.81
2022-12-05T14:59:56.181Z,101826.88
2022-12-05T15:02:27.278Z,101828.59
2022-12-05T15:05:23.487Z,101823.31
2022-12-05T15:07:53.837Z,101825.91
2022-12-05T15:10:28.384Z,101822.38
2022-12-05T15:12:58.856Z,101825.06
2022-12-05T15:15:40.491Z,101829.53
2022-12-05T15:18:31.708Z,101834.09
2022-12-05T15:21:02.855Z,101833.25
2022-12-05T15:23:58.775Z,101835.06
2022-12-05T15:29:20.470Z,101833.97
2022-12-05T15:31:52.854Z,101835.78
2022-12-05T15:34:44.019Z,101837.50
2022-12-05T15:37:32.489Z,101842.88
2022-12-05T15:40:14.782Z,101838.44
2022-12-05T15:42:42.329Z,101841.06
2022-12-05T15:45:15.635Z,101842.88
2022-12-05T15:47:46.747Z,101842.78
2022-12-05T15:50:44.002Z,101840.25
2022-12-05T15:53:28.432Z,101845.47
2022-12-05T15:56:35.935Z,101840.13
2022-12-05T15:59:31.140Z,101836.50
2022-12-05T16:02:12.649Z,101839.16
2022-12-05T16:04:46.677Z,101843.59
2022-12-05T16:07:14.856Z,101836.50
2022-12-05T16:09:44.324Z,101838.28
2022-12-05T16:12:38.523Z,101843.81
2022-12-05T16:15:12.426Z,101844.75
2022-12-05T16:17:52.714Z,101851.94
2022-12-05T16:20:19.366Z,101858.94
2022-12-05T16:22:53.124Z,101846.50
2022-12-05T16:25:29.787Z,101851.84
2022-12-05T16:28:18.144Z,101855.47
2022-12-05T16:31:02.703Z,101853.66
2022-12-05T16:33:30.702Z,101852.78
2022-12-05T16:36:08.394Z,101859.97
2022-12-05T16:38:49.626Z,101857.28
2022-12-05T16:41:17.042Z,101847.34
2022-12-05T16:43:45.839Z,101863.38
2022-12-05T16:46:15.407Z,101858.88
2022-12-05T16:48:44.469Z,101865.09
2022-12-05T16:51:11.025Z,101866.97
2022-12-05T16:53:39.300Z,101869.50
2022-12-05T16:56:08.098Z,101865.97
2022-12-05T16:58:35.796Z,101865.03
2022-12-05T17:01:05.709Z,101866.84
2022-12-05T17:03:35.225Z,101872.13
2022-12-05T17:06:02.344Z,101863.28
2022-12-05T17:08:29.109Z,101859.75
2022-12-05T17:10:55.877Z,101857.22
2022-12-05T17:13:22.721Z,101854.53
2022-12-05T17:15:50.057Z,101856.50
2022-12-05T17:18:20.629Z,101864.47
2022-12-05T17:20:54.354Z,101859.16
2022-12-05T17:23:21.164Z,101866.13
2022-12-05T17:25:51.305Z,101866.03
2022-12-05T17:28:18.323Z,101866.84
2022-12-05T17:30:44.966Z,101865.91
2022-12-05T17:33:13.945Z,101870.31
2022-12-05T17:35:41.076Z,101865.81
2022-12-05T17:38:08.405Z,101861.25
2022-12-05T17:40:35.067Z,101865.75
2022-12-05T17:43:06.028Z,101860.31
2022-12-05T17:45:33.906Z,101859.28
2022-12-05T17:48:00.421Z,101869.94
2022-12-05T17:50:27.827Z,101863.78
2022-12-05T17:53:02.786Z,101877.97
2022-12-05T17:55:32.361Z,101869.06
2022-12-05T17:57:58.907Z,101879.78
2022-12-05T18:00:25.477Z,101877.19
2022-12-05T18:02:52.634Z,101872.75
2022-12-05T18:05:19.974Z,101874.50
2022-12-05T18:07:46.921Z,101880.81
2022-12-05T18:10:19.237Z,101877.19
2022-12-05T18:12:47.288Z,101881.66
2022-12-05T18:15:14.813Z,101885.22
2022-12-05T18:17:42.251Z,101887.03
2022-12-05T18:20:11.034Z,101895.06
2022-12-05T18:22:37.559Z,101893.19
2022-12-05T18:25:05.261Z,101894.94
2022-12-05T18:27:33.547Z,101892.16
2022-12-05T18:30:00.013Z,101897.47
2022-12-05T18:32:26.568Z,101893.91
2022-12-05T18:34:53.553Z,101893.13
2022-12-05T18:37:20.130Z,101898.63
2022-12-05T18:39:46.663Z,101903.03
2022-12-05T18:42:15.294Z,101902.97
2022-12-05T18:44:42.235Z,101898.63
2022-12-05T18:47:08.866Z,101898.69
2022-12-05T18:49:35.430Z,101898.69
2022-12-05T18:52:02.102Z,101897.84
2022-12-05T18:54:28.611Z,101905.94
2022-12-05T18:56:55.054Z,101898.78
2022-12-05T18:59:22.362Z,101899.66
2022-12-05T19:01:49.909Z,101898.69
2022-12-05T19:04:18.906Z,101898.63
2022-12-05T19:06:51.904Z,101893.25
2022-12-05T19:09:20.987Z,101904.00
2022-12-05T19:11:49.846Z,101901.22
2022-12-05T19:14:18.893Z,101909.28
2022-12-05T19:16:46.531Z,101911.88
2022-12-05T19:19:14.687Z,101916.28
2022-12-05T19:21:42.109Z,101921.66
2022-12-05T19:24:10.755Z,101918.91
2022-12-05T19:26:37.494Z,101920.56
2022-12-05T19:29:04.966Z,101922.38
2022-12-05T19:31:31.992Z,101924.13
2022-12-05T19:34:00.879Z,101926.88
2022-12-05T19:36:33.206Z,101926.72
2022-12-05T19:38:59.799Z,101931.22
2022-12-05T19:41:28.447Z,101930.41
2022-12-05T19:43:55.635Z,101929.47
2022-12-05T19:46:29.696Z,101929.47
2022-12-05T19:48:58.327Z,101929.41
2022-12-05T19:51:25.119Z,101922.22
2022-12-05T19:53:51.673Z,101932.94
2022-12-05T19:56:23.218Z,101931.13
2022-12-05T19:58:52.203Z,101937.28
2022-12-05T20:01:22.232Z,101939.19
2022-12-05T20:03:52.151Z,101932.94
2022-12-05T20:06:20.595Z,101924.91
2022-12-05T20:08:48.303Z,101928.47
2022-12-05T20:11:18.096Z,101928.53
2022-12-05T20:13:47.034Z,101932.09
2022-12-05T20:16:16.298Z,101933.97
2022-12-05T20:18:42.931Z,101933.97
2022-12-05T20:21:12.758Z,101934.97
2022-12-05T20:23:39.590Z,101938.47
2022-12-05T20:26:09.716Z,101944.69
2022-12-05T20:28:37.026Z,101945.63
2022-12-05T20:31:08.904Z,101930.56
2022-12-05T20:33:36.839Z,101939.41
2022-12-05T20:36:09.605Z,101929.56
2022-12-05T20:38:36.461Z,101927.81
2022-12-05T20:41:09.402Z,101921.50
2022-12-05T20:43:35.925Z,101922.22
2022-12-05T20:46:13.240Z,101925.69
2022-12-05T20:48:40.687Z,101926.25
2022-12-05T20:51:10.166Z,101924.38
2022-12-05T20:53:38.944Z,101926.69
2022-12-05T20:56:14.746Z,101921.09
2022-12-05T20:58:44.646Z,101920.94
2022-12-05T21:01:12.856Z,101925.31
2022-12-05T21:03:41.909Z,101932.41
2022-12-05T21:06:11.219Z,101927.03
2022-12-05T21:08:38.242Z,101925.31
2022-12-05T21:11:05.890Z,101928.00
2022-12-05T21:13:32.640Z,101922.63
2022-12-05T21:16:03.144Z,101928.84
2022-12-05T21:18:30.510Z,101933.03
2022-12-05T21:21:02.313Z,101933.84
2022-12-05T21:23:29.014Z,101929.19
2022-12-05T21:26:01.960Z,101936.28
2022-12-05T21:28:32.655Z,101930.78
2022-12-05T21:31:11.556Z,101931.56
2022-12-05T21:33:39.424Z,101920.75
2022-12-05T21:36:07.014Z,101925.16
2022-12-05T21:38:33.601Z,101922.41
2022-12-05T21:41:00.346Z,101922.47
2022-12-05T21:43:26.841Z,101918.06
2022-12-05T21:45:54.418Z,101927.06
2022-12-05T21:48:23.152Z,101923.59
2022-12-05T21:50:50.454Z,101922.72
2022-12-05T21:53:18.007Z,101925.56
2022-12-05T21:55:45.035Z,101933.59
2022-12-05T21:58:11.867Z,101932.03
2022-12-05T22:00:39.179Z,101934.72
2022-12-05T22:03:06.402Z,101941.00
2022-12-05T22:05:33.715Z,101931.38
2022-12-05T22:08:04.838Z,101935.88
2022-12-05T22:10:37.260Z,101930.53
2022-12-05T22:13:04.723Z,101928.63
2022-12-05T22:15:31.365Z,101935.00
2022-12-05T22:17:57.897Z,101936.81
2022-12-05T22:20:24.399Z,101948.50
2022-12-05T22:22:50.931Z,101944.09
2022-12-05T22:25:17.412Z,101937.84
2022-12-05T22:27:43.975Z,101939.59
2022-12-05T22:30:10.855Z,101937.84
2022-12-05T22:32:37.418Z,101932.47
2022-12-05T22:35:04.595Z,101942.34
2022-12-05T22:37:31.695Z,101934.22
2022-12-05T22:39:58.910Z,101936.06
2022-12-05T22:42:27.281Z,101933.34
2022-12-05T22:44:53.700Z,101929.72
2022-12-05T22:47:20.243Z,101938.72
2022-12-05T22:49:46.747Z,101937.88
2022-12-05T22:52:13.280Z,101939.78
2022-12-05T22:54:39.798Z,101936.31
2022-12-05T22:57:06.393Z,101938.13
2022-12-05T22:59:32.874Z,101934.66
2022-12-05T23:01:59.626Z,101942.69
2022-12-05T23:04:26.260Z,101939.00
2022-12-05T23:06:52.930Z,101935.44
2022-12-05T23:09:20.514Z,101939.94
2022-12-05T23:11:50.219Z,101939.00
2022-12-05T23:14:16.734Z,101933.56
2022-12-05T23:16:43.400Z,101925.66
2022-12-05T23:19:09.978Z,101929.34
2022-12-05T23:21:39.364Z,101926.69
2022-12-05T23:24:09.807Z,101932.91
2022-12-05T23:26:40.269Z,101927.53
2022-12-05T23:29:08.622Z,101932.19
2022-12-05T23:31:35.312Z,101927.69
2022-12-05T23:34:03.859Z,101923.34
2022-12-05T23:36:32.367Z,101927.94
2022-12-05T23:38:59.031Z,101926.13
2022-12-05T23:41:26.279Z,101927.78
2022-12-05T23:43:53.571Z,101928.66
2022-12-05T23:46:23.746Z,101923.28
2022-12-05T23:48:51.277Z,101921.47
2022-12-05T23:51:23.996Z,101917.91
2022-12-05T23:53:59.001Z,101919.72
2022-12-05T23:56:28.299Z,101924.22
2022-12-05T23:58:56.255Z,101917.84
